Map

Track Data

SID SEASON NUMBER BASIN SUBBASIN NAME ISO_TIME NATURE LAT LON WMO_WIND WMO_PRES WMO_AGENCY TRACK_TYPE DIST2LAND LANDFALL IFLAG USA_AGENCY USA_ATCF_ID USA_LAT USA_LON USA_RECORD USA_STATUS USA_WIND USA_PRES USA_SSHS USA_R34_NE USA_R34_SE USA_R34_SW USA_R34_NW USA_R50_NE USA_R50_SE USA_R50_SW USA_R50_NW USA_R64_NE USA_R64_SE USA_R64_SW USA_R64_NW USA_POCI USA_ROCI USA_RMW USA_EYE TOKYO_LAT TOKYO_LON TOKYO_GRADE TOKYO_WIND TOKYO_PRES TOKYO_R50_DIR TOKYO_R50_LONG TOKYO_R50_SHORT TOKYO_R30_DIR TOKYO_R30_LONG TOKYO_R30_SHORT TOKYO_LAND CMA_LAT CMA_LON CMA_CAT CMA_WIND CMA_PRES HKO_LAT HKO_LON HKO_CAT HKO_WIND HKO_PRES NEWDELHI_LAT NEWDELHI_LON NEWDELHI_GRADE NEWDELHI_WIND NEWDELHI_PRES NEWDELHI_CI NEWDELHI_DP NEWDELHI_POCI REUNION_LAT REUNION_LON REUNION_TYPE REUNION_WIND REUNION_PRES REUNION_TNUM REUNION_CI REUNION_RMW REUNION_R34_NE REUNION_R34_SE REUNION_R34_SW REUNION_R34_NW REUNION_R50_NE REUNION_R50_SE REUNION_R50_SW REUNION_R50_NW REUNION_R64_NE REUNION_R64_SE REUNION_R64_SW REUNION_R64_NW BOM_LAT BOM_LON BOM_TYPE BOM_WIND BOM_PRES BOM_TNUM BOM_CI BOM_RMW BOM_R34_NE BOM_R34_SE BOM_R34_SW BOM_R34_NW BOM_R50_NE BOM_R50_SE BOM_R50_SW BOM_R50_NW BOM_R64_NE BOM_R64_SE BOM_R64_SW BOM_R64_NW BOM_ROCI BOM_POCI BOM_EYE BOM_POS_METHOD BOM_PRES_METHOD NADI_LAT NADI_LON NADI_CAT NADI_WIND NADI_PRES WELLINGTON_LAT WELLINGTON_LON WELLINGTON_WIND WELLINGTON_PRES DS824_LAT DS824_LON DS824_STAGE DS824_WIND DS824_PRES TD9636_LAT TD9636_LON TD9636_STAGE TD9636_WIND TD9636_PRES TD9635_LAT TD9635_LON TD9635_WIND TD9635_PRES TD9635_ROCI NEUMANN_LAT NEUMANN_LON NEUMANN_CLASS NEUMANN_WIND NEUMANN_PRES MLC_LAT MLC_LON MLC_CLASS MLC_WIND MLC_PRES USA_GUST BOM_GUST BOM_GUST_PER REUNION_GUST REUNION_GUST_PER USA_SEAHGT USA_SEARAD_NE USA_SEARAD_SE USA_SEARAD_SW USA_SEARAD_NW STORM_SPEED STORM_DIR
1879345S16059 1880 37 SI MM NOT_NAMED 1879-12-10 18:00:00 NR -15.7000 59.3000 main 520 510 __________O___ -1 -15.7000 59.3000 7 3 0
1879345S16059 1880 37 SI MM NOT_NAMED 1879-12-10 21:00:00 NR -15.8437 59.2889 main 510 488 __________P___ -1 -15.8437 59.2889 7 3 0
1879345S16059 1880 37 SI MM NOT_NAMED 1879-12-11 00:00:00 NR -16.0000 59.2723 main 488 464 __________P___ -1 -16.0000 59.2723 7 3 187
1879345S16059 1880 37 SI MM NOT_NAMED 1879-12-11 03:00:00 NR -16.1812 59.2445 main 464 443 __________P___ -1 -16.1812 59.2445 7 4 189
1879345S16059 1880 37 SI MM NOT_NAMED 1879-12-11 06:00:00 NR -16.4000 59.2000 main 443 418 __________O___ -1 -16.4000 59.2000 7 5 192
1879345S16059 1880 37 SI MM NOT_NAMED 1879-12-11 09:00:00 NR -16.6641 59.1371 main 408 387 __________P___ -1 -16.6641 59.1371 7 6 192
1879345S16059 1880 37 SI MM NOT_NAMED 1879-12-11 12:00:00 NR -16.9625 59.0704 main 376 341 __________P___ -1 -16.9625 59.0704 7 6 190
1879345S16059 1880 37 SI MM NOT_NAMED 1879-12-11 15:00:00 NR -17.2797 59.0185 main 341 311 __________P___ -1 -17.2797 59.0185 7 6 187
1879345S16059 1880 37 SI MM NOT_NAMED 1879-12-11 18:00:00 NR -17.6000 59.0000 main 311 281 __________O___ -1 -17.6000 59.0000 7 6 0
1879345S16059 1880 37 SI MM NOT_NAMED 1879-12-11 21:00:00 NR -17.9081 59.0268 main 281 258 __________P___ -1 -17.9081 59.0268 7 6 171
1879345S16059 1880 37 SI MM NOT_NAMED 1879-12-12 00:00:00 NR -18.2149 59.0899 main 258 238 __________P___ -1 -18.2149 59.0899 7 6 166
1879345S16059 1880 37 SI MM NOT_NAMED 1879-12-12 03:00:00 NR -18.5143 59.1831 main 238 221 __________P___ -1 -18.5143 59.1831 7 6 161
1879345S16059 1880 37 SI MM NOT_NAMED 1879-12-12 06:00:00 NR -18.8000 59.3000 main 222 210 __________O___ -1 -18.8000 59.3000 7 6 158
1879345S16059 1880 37 SI MM NOT_NAMED 1879-12-12 09:00:00 NR -19.0806 59.4283 main 210 208 __________P___ -1 -19.0806 59.4283 7 6 154
1879345S16059 1880 37 SI MM NOT_NAMED 1879-12-12 12:00:00 NR -19.3450 59.5774 main 218 208 __________P___ -1 -19.3450 59.5774 7 6 150
1879345S16059 1880 37 SI MM NOT_NAMED 1879-12-12 15:00:00 NR -19.5869 59.7377 main 213 213 __________P___ -1 -19.5869 59.7377 7 5 146
1879345S16059 1880 37 SI MM NOT_NAMED 1879-12-12 18:00:00 NR -19.8000 59.9000 main 226 223 __________O___ -1 -19.8000 59.9000 7 5 143
1879345S16059 1880 37 SI MM NOT_NAMED 1879-12-12 21:00:00 NR -19.9806 60.0566 main 242 241 __________P___ -1 -19.9806 60.0566 7 4 139
1879345S16059 1880 37 SI MM NOT_NAMED 1879-12-13 00:00:00 NR -20.1350 60.2075 main 251 250 __________P___ -1 -20.1350 60.2075 7 4 136
1879345S16059 1880 37 SI MM NOT_NAMED 1879-12-13 03:00:00 NR -20.2719 60.3546 main 271 271 __________P___ -1 -20.2719 60.3546 7 4 134
1879345S16059 1880 37 SI MM NOT_NAMED 1879-12-13 06:00:00 NR -20.4000 60.5000 main 281 __________O___ -1 -20.4000 60.5000 7 4 134

About IBTrACS Database

This database is a web-friendly format of International Best Track Archive for Climate Stewardship (IBTrACS), a global best track data archive curated by NOAA dating back to 1842.

Updated: 2021-12-03